Time;durP1;ratioP1;P1;durP2;ratioP2;P2;SDS_P1;SDS_P2;PMS_P1;PMS_P2;Temp;Humidity;BMP_temperature;BMP_pressure;BME280_temperature;BME280_humidity;BME280_pressure;Samples;Min_cycle;Max_cycle;Signal;HPM_P1;HPM_P2
2021/10/24 14:06:15;;;;;;;7.35;5.10;;;20.00;42.50;;;;;;5041392;27;2040980;-91
2021/10/24 14:08:42;;;;;;;9.35;5.53;;;18.50;46.00;;;;;;5046553;27;89934;-90
2021/10/24 14:11:10;;;;;;;7.13;5.82;;;17.90;48.90;;;;;;5062749;27;89538;-91
2021/10/24 14:13:37;;;;;;;7.25;5.43;;;17.30;49.40;;;;;;5063294;27;87992;-90
2021/10/24 14:16:04;;;;;;;7.22;5.20;;;16.90;50.70;;;;;;5062732;27;89703;-90
2021/10/24 14:18:32;;;;;;;7.72;5.70;;;16.60;51.30;;;;;;5079272;27;103738;-91
2021/10/24 14:20:59;;;;;;;6.00;5.18;;;16.30;51.80;;;;;;5062835;27;88142;-91
2021/10/24 14:23:26;;;;;;;7.72;5.63;;;16.10;52.70;;;;;;5079719;27;90912;-91
2021/10/24 14:25:53;;;;;;;8.90;5.80;;;16.00;53.00;;;;;;5079998;27;87654;-91
2021/10/24 14:28:20;;;;;;;7.45;5.07;;;15.90;52.30;;;;;;5079816;27;87041;-91
2021/10/24 14:30:47;;;;;;;6.57;5.22;;;15.70;52.40;;;;;;5079657;27;87215;-91
2021/10/24 14:33:14;;;;;;;8.50;5.72;;;15.50;52.70;;;;;;5062377;27;90821;-90
2021/10/24 14:35:41;;;;;;;7.72;5.90;;;15.50;53.00;;;;;;5063129;27;90327;-90
2021/10/24 14:38:09;;;;;;;6.63;5.10;;;15.40;53.30;;;;;;5098971;27;87466;-90
2021/10/24 14:40:36;;;;;;;8.27;5.13;;;15.30;53.30;;;;;;5058969;27;86909;-90
2021/10/24 14:43:03;;;;;;;6.97;5.00;;;15.30;53.90;;;;;;5057875;27;109335;-90
2021/10/24 14:45:32;;;;;;;5.85;4.70;;;15.20;54.00;;;;;;5058734;27;87553;-90
2021/10/24 14:47:59;;;;;;;7.40;5.00;;;15.20;53.80;;;;;;5058793;27;89771;-90
2021/10/24 14:50:26;;;;;;;7.65;4.80;;;15.10;54.00;;;;;;5058818;27;88822;-90
2021/10/24 14:52:53;;;;;;;8.13;6.03;;;15.10;54.50;;;;;;5077045;27;88184;-90
2021/10/24 14:55:20;;;;;;;9.23;5.22;;;15.00;54.60;;;;;;5078086;27;87007;-90
2021/10/24 14:57:48;;;;;;;6.00;5.00;;;15.00;54.80;;;;;;5045523;27;89000;-90
2021/10/24 15:00:15;;;;;;;8.30;5.90;;;15.00;55.30;;;;;;5079257;27;87122;-90
2021/10/24 15:02:42;;;;;;;8.77;6.38;;;15.00;55.30;;;;;;5097224;27;87405;-90
2021/10/24 15:05:09;;;;;;;7.43;5.63;;;14.90;56.00;;;;;;5060645;27;103450;-90
2021/10/24 15:07:36;;;;;;;8.32;5.50;;;14.90;56.50;;;;;;5047544;27;87154;-90
2021/10/24 15:10:06;;;;;;;8.02;5.88;;;14.80;56.80;;;;;;4982450;27;88163;-90
2021/10/24 15:12:34;;;;;;;8.70;5.80;;;14.70;57.00;;;;;;5059434;27;89407;-89
2021/10/24 15:15:04;;;;;;;7.85;5.70;;;14.80;56.90;;;;;;5074771;27;90420;-89
2021/10/24 15:17:41;;;;;;;7.05;5.85;;;14.70;56.70;;;;;;5078722;27;90007;-90
2021/10/24 15:22:56;;;;;;;6.20;5.35;;;14.60;57.50;;;;;;5058138;27;87071;-89
2021/10/24 15:25:23;;;;;;;9.18;6.10;;;14.50;57.80;;;;;;5071105;27;87222;-90
2021/10/24 15:27:51;;;;;;;9.35;8.40;;;14.50;58.00;;;;;;5061745;27;89616;-90
2021/10/24 15:30:19;;;;;;;7.40;6.05;;;14.50;57.90;;;;;;5039990;27;89006;-90
2021/10/24 15:32:46;;;;;;;8.40;6.00;;;14.40;58.40;;;;;;5055722;27;87929;-90
2021/10/24 15:35:14;;;;;;;7.65;5.90;;;14.30;58.50;;;;;;5052763;27;89118;-90
2021/10/24 15:37:41;;;;;;;7.53;5.78;;;14.30;58.90;;;;;;5051065;27;88640;-89
2021/10/24 15:40:11;;;;;;;7.25;5.25;;;14.20;58.70;;;;;;5056229;27;87344;-90
2021/10/24 15:42:38;;;;;;;9.35;6.13;;;14.10;59.40;;;;;;5061760;27;86822;-90
2021/10/24 15:45:06;;;;;;;6.22;5.03;;;14.10;59.60;;;;;;5071732;27;87321;-90
2021/10/24 15:47:34;;;;;;;6.22;5.18;;;14.00;60.10;;;;;;5040789;27;88687;-90
2021/10/24 15:50:01;;;;;;;17.73;10.35;;;14.00;60.00;;;;;;5074652;27;88361;-90
2021/10/24 15:52:28;;;;;;;11.35;6.93;;;13.90;60.20;;;;;;5044104;27;90504;-90
2021/10/24 15:54:55;;;;;;;11.77;8.15;;;13.80;60.30;;;;;;5028573;28;87783;-89
2021/10/24 15:57:23;;;;;;;9.75;6.90;;;13.70;60.70;;;;;;5036425;28;86979;-89
2021/10/24 15:59:50;;;;;;;7.45;6.30;;;13.60;61.10;;;;;;5037816;27;89613;-90
2021/10/24 16:02:17;;;;;;;9.23;6.97;;;13.50;61.30;;;;;;5033479;28;87077;-89
2021/10/24 16:04:44;;;;;;;9.02;6.43;;;13.40;61.60;;;;;;5058224;27;87420;-89
2021/10/24 16:07:11;;;;;;;8.68;6.55;;;13.30;62.00;;;;;;5020479;28;90648;-90
2021/10/24 16:09:38;;;;;;;9.35;5.97;;;13.10;62.30;;;;;;5036115;28;89329;-90
2021/10/24 16:12:06;;;;;;;9.88;6.30;;;13.00;62.20;;;;;;5040209;28;90553;-90
2021/10/24 16:14:33;;;;;;;8.07;5.65;;;12.90;62.90;;;;;;5039100;28;88702;-90
2021/10/24 16:17:00;;;;;;;9.18;5.93;;;12.70;62.90;;;;;;5045232;27;87203;-89
2021/10/24 16:19:27;;;;;;;8.38;6.40;;;12.60;63.40;;;;;;5056354;27;87070;-90
2021/10/24 16:21:54;;;;;;;7.60;5.22;;;12.60;63.70;;;;;;5056556;27;87822;-89
2021/10/24 16:24:22;;;;;;;7.78;6.28;;;12.40;63.70;;;;;;5042795;27;87472;-90
2021/10/24 16:26:49;;;;;;;9.23;6.55;;;12.30;64.00;;;;;;5039412;28;87575;-89
2021/10/24 16:29:16;;;;;;;8.60;5.60;;;12.30;64.20;;;;;;5027484;28;89490;-90
2021/10/24 16:31:43;;;;;;;11.85;7.05;;;12.20;64.80;;;;;;5030492;28;87115;-90
2021/10/24 16:34:10;;;;;;;10.02;6.82;;;12.10;65.10;;;;;;5053778;27;86947;-89
2021/10/24 16:36:37;;;;;;;9.35;7.25;;;12.10;65.00;;;;;;5039258;28;89612;-90
2021/10/24 16:39:04;;;;;;;10.75;6.28;;;12.00;65.30;;;;;;5055967;27;88385;-91
2021/10/24 16:41:31;;;;;;;7.25;6.13;;;12.00;65.60;;;;;;5036015;28;87996;-90
2021/10/24 16:43:59;;;;;;;10.15;6.43;;;11.90;65.50;;;;;;5035328;28;89980;-90
2021/10/24 16:46:26;;;;;;;8.07;6.10;;;11.90;65.90;;;;;;5022174;28;88833;-89
2021/10/24 16:48:53;;;;;;;7.10;5.70;;;11.80;65.90;;;;;;5035322;27;89103;-90
2021/10/24 16:51:20;;;;;;;10.30;6.63;;;11.80;65.80;;;;;;5036442;28;91106;-89
2021/10/24 16:53:47;;;;;;;9.48;6.72;;;11.80;66.00;;;;;;4986325;28;89850;-90
2021/10/24 16:56:17;;;;;;;7.55;5.72;;;11.70;66.10;;;;;;5025375;28;87420;-90
2021/10/24 16:58:44;;;;;;;8.77;5.88;;;11.60;66.30;;;;;;5039071;27;89458;-91
2021/10/24 17:01:12;;;;;;;45.25;30.17;;;11.60;66.80;;;;;;5039005;27;87067;-90
2021/10/24 17:03:39;;;;;;;39.97;30.33;;;11.60;67.00;;;;;;5017733;28;89571;-90
2021/10/24 17:06:07;;;;;;;103.00;90.63;;;11.50;66.80;;;;;;5022919;28;92433;-90
2021/10/24 17:08:34;;;;;;;127.68;102.20;;;11.50;66.70;;;;;;5037092;28;91333;-90
2021/10/24 17:11:01;;;;;;;61.00;55.70;;;11.50;67.00;;;;;;5049880;27;90958;-90
2021/10/24 17:13:28;;;;;;;440.25;391.45;;;11.40;67.10;;;;;;5020570;28;89845;-89
2021/10/24 17:15:55;;;;;;;43.75;40.38;;;11.30;67.60;;;;;;5032661;28;94667;-89
2021/10/24 17:18:24;;;;;;;12.00;8.68;;;11.30;67.60;;;;;;5003475;28;93975;-89
2021/10/24 17:20:51;;;;;;;11.32;8.98;;;11.30;67.80;;;;;;5037863;28;105104;-90
2021/10/24 17:23:18;;;;;;;15.98;14.60;;;11.20;67.70;;;;;;5038412;28;87360;-90
2021/10/24 17:25:45;;;;;;;17.80;16.20;;;11.20;68.00;;;;;;5038676;28;89521;-90
2021/10/24 17:28:12;;;;;;;10.48;7.90;;;11.10;67.90;;;;;;4987290;28;91849;-90
2021/10/24 17:30:39;;;;;;;9.90;6.82;;;11.10;68.30;;;;;;5021310;28;90931;-90
2021/10/24 17:33:06;;;;;;;9.15;6.63;;;11.10;68.50;;;;;;5005275;28;90088;-90
2021/10/24 17:35:34;;;;;;;10.23;6.93;;;11.00;68.20;;;;;;5055309;27;89775;-91
2021/10/24 17:38:04;;;;;;;10.15;7.53;;;11.00;68.40;;;;;;5034494;28;89464;-90
2021/10/24 17:40:32;;;;;;;8.30;6.10;;;10.90;68.30;;;;;;5001512;28;90549;-90
2021/10/24 17:42:59;;;;;;;10.85;7.22;;;10.90;68.40;;;;;;5036488;28;89989;-90
2021/10/24 17:45:26;;;;;;;8.63;6.82;;;10.90;68.60;;;;;;5039670;28;87423;-90
2021/10/24 17:47:53;;;;;;;11.70;6.38;;;10.90;68.00;;;;;;5007986;28;86857;-90
2021/10/24 17:50:20;;;;;;;9.25;6.38;;;10.80;68.10;;;;;;4997631;28;91185;-89
2021/10/24 17:52:47;;;;;;;8.85;6.35;;;10.80;68.60;;;;;;5031535;27;90206;-90
2021/10/24 17:55:14;;;;;;;7.82;6.07;;;10.80;68.20;;;;;;5016710;28;90156;-90
2021/10/24 17:57:41;;;;;;;9.48;6.35;;;10.80;68.20;;;;;;5000844;28;88731;-90
2021/10/24 18:00:08;;;;;;;8.90;6.68;;;10.70;68.30;;;;;;5003750;28;91319;-90
2021/10/24 18:02:35;;;;;;;9.82;6.07;;;10.70;68.50;;;;;;5037586;28;90018;-90
2021/10/24 18:05:05;;;;;;;8.57;6.45;;;10.70;68.60;;;;;;5024771;27;86976;-90
2021/10/24 18:07:32;;;;;;;9.93;6.32;;;10.60;69.00;;;;;;5022741;28;88224;-89
2021/10/24 18:10:00;;;;;;;11.30;6.68;;;10.60;68.90;;;;;;5037160;27;90740;-90
2021/10/24 18:12:27;;;;;;;7.72;6.72;;;10.60;69.10;;;;;;5000558;28;90308;-90
2021/10/24 18:14:54;;;;;;;13.48;8.15;;;10.50;69.50;;;;;;5039310;28;88607;-90
2021/10/24 18:17:38;;;;;;;10.23;7.37;;;10.50;69.10;;;;;;5034322;27;89776;-90
2021/10/24 18:20:08;;;;;;;8.73;6.88;;;10.40;70.00;;;;;;5032182;28;90634;-89
2021/10/24 18:22:36;;;;;;;12.90;7.15;;;10.40;69.30;;;;;;5019767;28;91990;-90
2021/10/24 18:25:09;;;;;;;9.35;6.82;;;10.30;69.30;;;;;;5031997;27;89135;-89
2021/10/24 18:27:40;;;;;;;11.63;6.88;;;10.30;69.80;;;;;;5018506;28;87984;-90
2021/10/24 18:30:08;;;;;;;11.32;6.88;;;10.20;70.30;;;;;;5027172;28;87926;-89
2021/10/24 18:32:36;;;;;;;8.77;6.90;;;10.20;70.60;;;;;;5035615;28;88535;-90
2021/10/24 18:35:05;;;;;;;11.68;7.18;;;10.10;70.30;;;;;;5033233;28;91077;-90
2021/10/24 18:37:33;;;;;;;10.68;7.35;;;10.10;70.50;;;;;;5036784;27;89352;-89
2021/10/24 18:40:00;;;;;;;16.15;8.45;;;10.10;70.40;;;;;;5018885;28;89850;-89
2021/10/24 18:42:27;;;;;;;9.13;7.15;;;10.10;70.40;;;;;;5035735;28;90860;-90
2021/10/24 18:44:54;;;;;;;10.55;7.20;;;10.10;70.50;;;;;;5035465;28;91618;-90
2021/10/24 18:47:22;;;;;;;11.20;7.47;;;10.00;71.30;;;;;;5032617;28;88675;-90
2021/10/24 18:49:51;;;;;;;8.60;6.97;;;10.00;71.30;;;;;;5023905;28;88585;-90
2021/10/24 18:52:19;;;;;;;8.57;7.40;;;9.90;71.40;;;;;;5052368;27;91650;-89
2021/10/24 18:54:46;;;;;;;12.77;8.00;;;9.90;71.20;;;;;;5031160;28;91221;-90
2021/10/24 18:57:13;;;;;;;9.45;7.13;;;9.90;71.40;;;;;;5049750;27;89638;-88
2021/10/24 18:59:40;;;;;;;11.32;7.53;;;10.00;70.90;;;;;;5055775;27;88171;-89
2021/10/24 19:02:08;;;;;;;9.80;7.65;;;9.90;70.90;;;;;;5038437;27;92131;-90
2021/10/24 19:04:35;;;;;;;12.82;10.07;;;9.90;71.70;;;;;;5023309;28;87867;-90
2021/10/24 19:07:05;;;;;;;13.48;9.80;;;9.80;72.10;;;;;;5035583;28;89469;-90
2021/10/24 19:09:37;;;;;;;17.17;12.13;;;9.80;71.90;;;;;;5055796;27;88187;-91
2021/10/24 19:12:08;;;;;;;17.52;13.35;;;9.70;72.10;;;;;;5038434;28;89691;-90
2021/10/24 19:14:35;;;;;;;18.23;13.50;;;9.80;72.00;;;;;;5032854;28;89868;-89
2021/10/24 19:17:02;;;;;;;11.90;9.77;;;9.70;72.40;;;;;;5036015;27;89030;-90
2021/10/24 19:19:29;;;;;;;12.63;9.38;;;9.70;72.00;;;;;;5052235;27;90899;-90
2021/10/24 19:21:56;;;;;;;14.13;11.32;;;9.70;72.20;;;;;;5037132;28;88927;-90
2021/10/24 19:24:23;;;;;;;12.65;9.88;;;9.70;72.10;;;;;;5028574;28;89430;-90
2021/10/24 19:26:50;;;;;;;13.15;9.63;;;9.60;72.50;;;;;;5025353;28;91431;-89
2021/10/24 19:29:18;;;;;;;12.25;9.55;;;9.60;72.50;;;;;;5040825;27;87234;-89
2021/10/24 19:31:45;;;;;;;10.40;8.32;;;9.60;72.60;;;;;;5023437;28;91347;-90
2021/10/24 19:34:13;;;;;;;10.40;9.30;;;9.50;72.40;;;;;;5023269;28;89001;-89
2021/10/24 19:36:40;;;;;;;12.85;9.60;;;9.50;72.90;;;;;;5051630;27;88674;-90
2021/10/24 19:39:07;;;;;;;10.00;8.85;;;9.40;73.10;;;;;;5041135;28;87992;-90
2021/10/24 19:41:35;;;;;;;12.95;8.63;;;9.40;73.30;;;;;;5039856;28;88579;-90
2021/10/24 19:44:02;;;;;;;9.95;8.18;;;9.40;73.30;;;;;;5021043;28;88733;-90
2021/10/24 19:46:29;;;;;;;11.13;8.60;;;9.30;73.20;;;;;;5019673;28;88031;-91
2021/10/24 19:48:57;;;;;;;10.90;8.88;;;9.30;73.00;;;;;;5019880;28;88181;-91
2021/10/24 19:51:24;;;;;;;12.65;8.30;;;9.30;72.90;;;;;;5026108;28;89096;-90
2021/10/24 19:53:52;;;;;;;10.38;9.18;;;9.30;72.80;;;;;;5022736;28;101488;-90
2021/10/24 19:56:31;;;;;;;13.38;9.07;;;9.30;72.60;;;;;;5039483;28;89177;-90
2021/10/24 19:58:59;;;;;;;13.52;9.23;;;9.30;72.50;;;;;;5013585;28;89910;-90
2021/10/24 20:01:27;;;;;;;14.65;10.45;;;9.20;72.60;;;;;;5029516;28;92472;-90
2021/10/24 20:03:57;;;;;;;15.82;10.48;;;9.20;72.50;;;;;;5054872;27;89696;-90
2021/10/24 20:06:24;;;;;;;15.82;10.50;;;9.10;72.50;;;;;;5037290;28;91375;-90
2021/10/24 20:08:52;;;;;;;16.27;14.18;;;9.10;72.70;;;;;;5033027;28;88388;-90
2021/10/24 20:11:21;;;;;;;14.15;11.70;;;9.00;72.70;;;;;;5038735;28;91895;-90
2021/10/24 20:13:50;;;;;;;11.88;9.60;;;9.00;72.90;;;;;;5038733;28;88672;-89
2021/10/24 20:16:18;;;;;;;14.25;10.43;;;9.00;73.00;;;;;;5023763;28;90806;-90
2021/10/24 20:18:47;;;;;;;11.45;9.60;;;8.90;73.10;;;;;;5021305;28;88484;-90
2021/10/24 20:21:18;;;;;;;12.85;9.43;;;8.90;73.30;;;;;;5037760;28;89230;-90
2021/10/24 20:23:46;;;;;;;14.27;10.45;;;8.90;73.40;;;;;;5025186;28;88871;-90
2021/10/24 20:26:13;;;;;;;14.05;9.38;;;8.80;73.40;;;;;;5021000;28;95269;-90
2021/10/24 20:28:40;;;;;;;15.57;9.70;;;8.80;73.50;;;;;;5039288;28;89289;-90
2021/10/24 20:31:08;;;;;;;13.40;10.57;;;8.80;73.60;;;;;;5040487;28;88861;-89
2021/10/24 20:33:35;;;;;;;11.75;9.45;;;8.80;73.80;;;;;;5032057;28;89593;-90
2021/10/24 20:36:02;;;;;;;14.18;8.55;;;8.70;73.90;;;;;;5025081;28;90494;-90
2021/10/24 20:38:29;;;;;;;11.38;9.80;;;8.70;74.00;;;;;;5042570;27;88779;-90
2021/10/24 20:40:56;;;;;;;14.05;10.45;;;8.70;74.50;;;;;;5025157;28;88812;-90
2021/10/24 20:43:24;;;;;;;14.50;8.93;;;8.60;74.30;;;;;;5017287;28;90712;-90
2021/10/24 20:45:52;;;;;;;12.80;10.23;;;8.60;74.60;;;;;;5036142;27;89048;-90
2021/10/24 20:48:19;;;;;;;16.67;10.32;;;8.60;75.20;;;;;;5037943;28;90695;-90
2021/10/24 20:50:47;;;;;;;12.70;10.00;;;8.60;74.80;;;;;;5059102;27;92114;-90
2021/10/24 20:53:15;;;;;;;12.50;10.68;;;8.60;75.10;;;;;;4997646;28;91855;-90
2021/10/24 20:55:42;;;;;;;13.93;9.48;;;8.50;75.00;;;;;;5010924;28;91045;-90
2021/10/24 20:58:10;;;;;;;12.38;9.52;;;8.50;75.10;;;;;;5038250;28;91073;-90
2021/10/24 21:00:37;;;;;;;12.70;10.88;;;8.50;75.10;;;;;;5021774;28;92015;-89
2021/10/24 21:03:04;;;;;;;14.10;10.73;;;8.50;75.80;;;;;;5037673;28;92459;-90
2021/10/24 21:05:31;;;;;;;12.48;9.43;;;8.50;75.80;;;;;;5037456;28;89219;-90
2021/10/24 21:07:58;;;;;;;13.60;10.13;;;8.40;75.70;;;;;;5055455;27;88130;-89
2021/10/24 21:10:25;;;;;;;12.32;10.82;;;8.40;75.60;;;;;;5037894;28;89265;-90
2021/10/24 21:12:52;;;;;;;15.90;9.95;;;8.40;75.80;;;;;;5034834;28;88372;-90
2021/10/24 21:15:19;;;;;;;13.90;10.18;;;8.40;76.10;;;;;;5012402;28;88813;-90
2021/10/24 21:17:46;;;;;;;12.70;9.88;;;8.40;75.80;;;;;;5000703;28;90467;-90
2021/10/24 21:20:13;;;;;;;15.13;9.70;;;8.40;75.80;;;;;;4985113;28;88792;-90
2021/10/24 21:22:40;;;;;;;15.55;10.63;;;8.30;76.10;;;;;;5001369;28;91642;-90
2021/10/24 21:25:08;;;;;;;11.27;9.43;;;8.30;76.40;;;;;;5017087;28;89671;-90
2021/10/24 21:27:35;;;;;;;11.70;8.70;;;8.30;76.00;;;;;;5022228;28;91064;-90
2021/10/24 21:30:04;;;;;;;12.27;9.68;;;8.30;77.80;;;;;;5038422;28;92320;-90
2021/10/24 21:32:31;;;;;;;13.13;9.38;;;8.30;77.30;;;;;;5038319;28;91098;-90
2021/10/24 21:34:58;;;;;;;14.63;10.00;;;8.30;77.50;;;;;;5054735;27;89596;-90
2021/10/24 21:37:25;;;;;;;14.60;11.30;;;8.20;77.40;;;;;;5053975;27;88454;-90
2021/10/24 21:39:52;;;;;;;14.70;9.88;;;8.30;77.40;;;;;;5020158;28;91068;-89
2021/10/24 21:42:20;;;;;;;16.15;11.18;;;8.30;77.70;;;;;;5020888;28;91901;-90
2021/10/24 21:45:31;;;;;;;14.50;10.07;;;8.30;77.20;;;;;;5020588;28;88431;-89
2021/10/24 21:47:58;;;;;;;14.13;10.60;;;8.30;78.10;;;;;;5026962;28;89568;-90
2021/10/24 21:50:25;;;;;;;14.40;9.77;;;8.20;78.00;;;;;;5035906;28;91541;-90
2021/10/24 21:52:52;;;;;;;13.45;9.75;;;8.20;78.10;;;;;;5004728;28;89012;-89
2021/10/24 21:55:19;;;;;;;14.15;10.07;;;8.20;77.80;;;;;;5039156;28;87897;-90
2021/10/24 21:57:46;;;;;;;12.98;10.70;;;8.20;77.40;;;;;;5020524;28;88425;-89
2021/10/24 22:00:16;;;;;;;13.30;10.27;;;8.20;77.30;;;;;;5038203;28;88778;-90
2021/10/24 22:02:44;;;;;;;11.75;9.45;;;8.20;77.60;;;;;;5020090;28;91953;-90
2021/10/24 22:05:12;;;;;;;12.85;10.80;;;8.20;77.30;;;;;;5019889;28;91580;-90
2021/10/24 22:07:39;;;;;;;11.80;9.50;;;8.20;77.60;;;;;;5036651;28;90586;-90
2021/10/24 22:10:08;;;;;;;14.95;10.68;;;8.20;77.40;;;;;;5038811;28;89234;-89
2021/10/24 22:12:35;;;;;;;14.93;10.32;;;8.10;78.00;;;;;;5020471;28;89865;-89
2021/10/24 22:15:02;;;;;;;12.70;10.27;;;8.10;77.70;;;;;;5020308;28;89368;-90
2021/10/24 22:17:31;;;;;;;12.38;9.77;;;8.10;77.50;;;;;;5020062;28;89445;-89
2021/10/24 22:19:58;;;;;;;13.32;10.38;;;8.10;77.80;;;;;;5004422;28;90157;-90
2021/10/24 22:22:25;;;;;;;16.63;10.80;;;8.10;77.70;;;;;;5019746;28;92392;-90
2021/10/24 22:24:52;;;;;;;14.50;11.45;;;8.10;77.70;;;;;;5020080;28;91675;-89
2021/10/24 22:27:21;;;;;;;14.13;10.75;;;8.00;78.00;;;;;;5022661;28;91051;-90
2021/10/24 22:29:49;;;;;;;15.23;10.48;;;8.00;78.10;;;;;;5006874;28;91381;-90
2021/10/24 22:32:16;;;;;;;16.08;10.70;;;8.00;78.50;;;;;;5040400;28;89825;-90
2021/10/24 22:34:43;;;;;;;14.90;11.48;;;8.00;78.40;;;;;;5040392;28;88899;-90
2021/10/24 22:37:10;;;;;;;13.35;10.73;;;8.00;77.90;;;;;;5023654;28;88595;-90
2021/10/24 22:39:37;;;;;;;12.05;9.90;;;7.90;78.50;;;;;;5039828;27;92102;-90
2021/10/24 22:42:04;;;;;;;14.35;11.25;;;7.90;78.10;;;;;;5040725;28;91245;-90
2021/10/24 22:44:31;;;;;;;14.38;10.77;;;7.90;78.00;;;;;;5006895;28;88466;-90
2021/10/24 22:46:59;;;;;;;73.05;44.15;;;7.90;78.10;;;;;;5006997;28;90434;-90
2021/10/24 22:49:26;;;;;;;112.65;59.17;;;7.80;78.50;;;;;;5023094;28;93754;-90
2021/10/24 22:51:53;;;;;;;71.72;40.80;;;7.80;78.90;;;;;;5039899;28;88640;-90
2021/10/24 22:54:20;;;;;;;111.13;69.53;;;7.80;78.80;;;;;;5023265;28;89131;-90
2021/10/24 22:56:47;;;;;;;72.45;49.08;;;7.80;78.90;;;;;;5039741;28;90914;-89
2021/10/24 22:59:14;;;;;;;30.90;23.17;;;7.70;79.00;;;;;;5039741;28;88854;-90
2021/10/24 23:01:43;;;;;;;87.13;65.82;;;7.70;78.70;;;;;;5039641;28;89527;-90
2021/10/24 23:04:12;;;;;;;30.25;26.98;;;7.70;79.40;;;;;;5039283;28;89082;-90
2021/10/24 23:06:40;;;;;;;21.42;19.23;;;7.70;79.20;;;;;;5039287;28;88792;-90
2021/10/24 23:09:08;;;;;;;21.08;17.35;;;7.70;79.10;;;;;;5039429;28;88568;-90
2021/10/24 23:11:36;;;;;;;20.80;16.40;;;7.70;78.90;;;;;;5022737;28;92008;-90
2021/10/24 23:14:04;;;;;;;22.33;17.13;;;7.70;78.50;;;;;;5039732;28;88995;-90
2021/10/24 23:16:33;;;;;;;20.13;15.90;;;7.70;79.20;;;;;;5039549;28;88462;-89
2021/10/24 23:19:00;;;;;;;19.20;14.63;;;7.60;78.40;;;;;;5022448;28;101753;-90
2021/10/24 23:21:27;;;;;;;18.33;12.93;;;7.60;78.60;;;;;;5039267;28;91509;-90
2021/10/24 23:23:54;;;;;;;21.25;12.98;;;7.60;78.80;;;;;;5006349;28;92150;-90
2021/10/24 23:26:21;;;;;;;16.70;13.18;;;7.60;78.90;;;;;;5022510;28;90975;-90
2021/10/24 23:28:48;;;;;;;13.25;11.15;;;7.60;78.80;;;;;;5005927;28;92165;-89
2021/10/24 23:31:15;;;;;;;18.52;13.38;;;7.50;78.90;;;;;;5039027;28;92172;-90
2021/10/24 23:33:43;;;;;;;20.42;16.08;;;7.50;78.80;;;;;;5022620;28;91842;-90
2021/10/24 23:36:13;;;;;;;19.58;13.80;;;7.50;78.90;;;;;;5006694;28;89622;-90
2021/10/24 23:38:40;;;;;;;16.48;13.07;;;7.50;79.10;;;;;;5040017;27;88620;-90
2021/10/24 23:41:07;;;;;;;20.08;14.13;;;7.50;79.20;;;;;;5039353;27;91975;-90
2021/10/24 23:43:34;;;;;;;16.70;14.85;;;7.50;79.00;;;;;;5038868;28;89096;-90
2021/10/24 23:46:01;;;;;;;17.15;13.70;;;7.40;79.20;;;;;;5022640;28;88333;-90
2021/10/24 23:48:28;;;;;;;20.00;14.20;;;7.40;79.20;;;;;;5005969;28;88663;-90
2021/10/24 23:50:55;;;;;;;20.27;15.25;;;7.30;79.60;;;;;;5022367;28;92496;-90
2021/10/24 23:53:22;;;;;;;17.02;14.07;;;7.30;79.70;;;;;;5038753;27;91826;-89
2021/10/24 23:55:49;;;;;;;16.45;13.23;;;7.30;79.80;;;;;;5039160;28;88472;-89
2021/10/24 23:58:16;;;;;;;21.13;16.05;;;7.30;79.70;;;;;;5038665;28;88529;-89
